sensor_id;sensor_type;location;lat;lon;timestamp;pressure;altitude;pressure_sealevel;temperature;humidity
6680;BME280;3376;42.664;23.346;2023-05-12T00:00:50;94801.44;;;10.19;100.00
6680;BME280;3376;42.664;23.346;2023-05-12T00:03:17;94731.00;;;9.69;100.00
6680;BME280;3376;42.664;23.346;2023-05-12T00:05:43;94784.63;;;10.07;100.00
6680;BME280;3376;42.664;23.346;2023-05-12T00:08:12;94783.16;;;10.05;100.00
6680;BME280;3376;42.664;23.346;2023-05-12T00:10:38;94793.34;;;10.06;100.00
6680;BME280;3376;42.664;23.346;2023-05-12T00:13:06;94789.16;;;10.05;100.00
6680;BME280;3376;42.664;23.346;2023-05-12T00:15:33;94792.41;;;10.07;100.00
6680;BME280;3376;42.664;23.346;2023-05-12T00:17:59;94784.50;;;10.01;100.00
6680;BME280;3376;42.664;23.346;2023-05-12T00:20:26;94784.63;;;9.99;100.00
6680;BME280;3376;42.664;23.346;2023-05-12T00:22:53;94792.91;;;9.95;100.00
6680;BME280;3376;42.664;23.346;2023-05-12T00:25:21;94791.28;;;9.94;100.00
6680;BME280;3376;42.664;23.346;2023-05-12T00:27:48;94794.06;;;9.92;100.00
6680;BME280;3376;42.664;23.346;2023-05-12T00:30:15;94787.38;;;9.98;100.00
6680;BME280;3376;42.664;23.346;2023-05-12T00:32:42;94791.59;;;9.99;100.00
6680;BME280;3376;42.664;23.346;2023-05-12T00:35:09;94776.75;;;9.85;100.00
6680;BME280;3376;42.664;23.346;2023-05-12T00:37:35;94773.19;;;9.86;100.00
6680;BME280;3376;42.664;23.346;2023-05-12T00:40:02;94794.53;;;9.88;100.00
6680;BME280;3376;42.664;23.346;2023-05-12T00:42:32;94798.72;;;9.81;100.00
6680;BME280;3376;42.664;23.346;2023-05-12T00:44:59;94798.25;;;9.77;100.00
6680;BME280;3376;42.664;23.346;2023-05-12T00:47:26;94791.16;;;9.55;100.00
6680;BME280;3376;42.664;23.346;2023-05-12T00:49:53;94801.66;;;9.53;100.00
6680;BME280;3376;42.664;23.346;2023-05-12T00:52:20;94801.19;;;9.42;100.00
6680;BME280;3376;42.664;23.346;2023-05-12T00:54:47;94807.97;;;9.27;100.00
6680;BME280;3376;42.664;23.346;2023-05-12T00:57:15;94784.19;;;8.99;100.00
6680;BME280;3376;42.664;23.346;2023-05-12T00:59:43;94801.47;;;9.07;100.00
6680;BME280;3376;42.664;23.346;2023-05-12T01:02:10;94807.13;;;9.10;100.00
6680;BME280;3376;42.664;23.346;2023-05-12T01:04:37;94805.53;;;9.09;100.00
6680;BME280;3376;42.664;23.346;2023-05-12T01:07:06;94797.78;;;9.01;100.00
6680;BME280;3376;42.664;23.346;2023-05-12T01:09:35;94802.44;;;8.98;100.00
6680;BME280;3376;42.664;23.346;2023-05-12T01:12:02;94805.03;;;8.98;100.00
6680;BME280;3376;42.664;23.346;2023-05-12T01:14:29;94794.03;;;8.96;100.00
6680;BME280;3376;42.664;23.346;2023-05-12T01:16:59;94796.78;;;8.94;100.00
6680;BME280;3376;42.664;23.346;2023-05-12T01:19:37;94802.25;;;8.91;100.00
6680;BME280;3376;42.664;23.346;2023-05-12T01:22:06;94746.47;;;8.49;100.00
6680;BME280;3376;42.664;23.346;2023-05-12T01:24:35;94820.56;;;8.56;100.00
6680;BME280;3376;42.664;23.346;2023-05-12T01:27:06;94803.91;;;8.43;100.00
6680;BME280;3376;42.664;23.346;2023-05-12T01:29:34;94805.50;;;8.44;100.00
6680;BME280;3376;42.664;23.346;2023-05-12T01:32:01;94801.50;;;8.49;100.00
6680;BME280;3376;42.664;23.346;2023-05-12T01:34:28;94807.97;;;8.53;100.00
6680;BME280;3376;42.664;23.346;2023-05-12T01:36:55;94819.31;;;8.60;100.00
6680;BME280;3376;42.664;23.346;2023-05-12T01:39:21;94809.47;;;8.64;100.00
6680;BME280;3376;42.664;23.346;2023-05-12T01:41:49;94807.19;;;8.61;100.00
6680;BME280;3376;42.664;23.346;2023-05-12T01:44:17;94617.06;;;7.44;100.00
6680;BME280;3376;42.664;23.346;2023-05-12T01:46:44;94764.19;;;8.36;100.00
6680;BME280;3376;42.664;23.346;2023-05-12T01:49:11;94806.53;;;8.59;100.00
6680;BME280;3376;42.664;23.346;2023-05-12T01:51:38;94797.16;;;8.58;100.00
6680;BME280;3376;42.664;23.346;2023-05-12T01:54:05;94808.81;;;8.62;100.00
6680;BME280;3376;42.664;23.346;2023-05-12T01:56:31;94790.66;;;8.46;100.00
6680;BME280;3376;42.664;23.346;2023-05-12T01:58:58;94803.97;;;8.59;100.00
6680;BME280;3376;42.664;23.346;2023-05-12T02:01:26;94795.41;;;8.58;100.00
6680;BME280;3376;42.664;23.346;2023-05-12T02:03:54;94804.72;;;8.51;100.00
6680;BME280;3376;42.664;23.346;2023-05-12T02:06:21;94805.34;;;8.45;100.00
6680;BME280;3376;42.664;23.346;2023-05-12T02:08:48;94765.31;;;8.07;100.00
6680;BME280;3376;42.664;23.346;2023-05-12T02:11:15;94808.38;;;8.32;100.00
6680;BME280;3376;42.664;23.346;2023-05-12T02:13:42;94782.78;;;8.13;100.00
6680;BME280;3376;42.664;23.346;2023-05-12T02:16:09;94809.16;;;8.33;100.00
6680;BME280;3376;42.664;23.346;2023-05-12T02:18:38;94804.38;;;8.38;100.00
6680;BME280;3376;42.664;23.346;2023-05-12T02:21:05;94772.31;;;8.23;100.00
6680;BME280;3376;42.664;23.346;2023-05-12T02:23:32;94791.66;;;8.45;100.00
6680;BME280;3376;42.664;23.346;2023-05-12T02:25:59;94795.84;;;8.46;100.00
6680;BME280;3376;42.664;23.346;2023-05-12T02:28:25;94801.97;;;8.45;100.00
6680;BME280;3376;42.664;23.346;2023-05-12T02:30:52;94797.91;;;8.42;100.00
6680;BME280;3376;42.664;23.346;2023-05-12T02:33:20;94800.97;;;8.38;100.00
6680;BME280;3376;42.664;23.346;2023-05-12T02:35:48;94796.97;;;8.43;100.00
6680;BME280;3376;42.664;23.346;2023-05-12T02:38:15;94797.47;;;8.47;100.00
6680;BME280;3376;42.664;23.346;2023-05-12T02:40:42;94800.38;;;8.52;100.00
6680;BME280;3376;42.664;23.346;2023-05-12T02:43:08;94801.84;;;8.62;100.00
6680;BME280;3376;42.664;23.346;2023-05-12T02:45:35;94806.88;;;8.64;100.00
6680;BME280;3376;42.664;23.346;2023-05-12T02:48:02;94807.50;;;8.66;100.00
6680;BME280;3376;42.664;23.346;2023-05-12T02:50:29;94808.31;;;8.58;100.00
6680;BME280;3376;42.664;23.346;2023-05-12T02:52:57;94794.56;;;8.50;100.00
6680;BME280;3376;42.664;23.346;2023-05-12T02:55:24;94790.50;;;8.47;100.00
6680;BME280;3376;42.664;23.346;2023-05-12T02:57:52;94680.72;;;7.77;100.00
6680;BME280;3376;42.664;23.346;2023-05-12T03:00:19;94793.44;;;8.52;100.00
6680;BME280;3376;42.664;23.346;2023-05-12T03:02:45;94799.41;;;8.53;100.00
6680;BME280;3376;42.664;23.346;2023-05-12T03:05:12;94800.84;;;8.47;100.00
6680;BME280;3376;42.664;23.346;2023-05-12T03:07:39;94795.50;;;8.49;100.00
6680;BME280;3376;42.664;23.346;2023-05-12T03:10:08;94797.31;;;8.48;100.00
6680;BME280;3376;42.664;23.346;2023-05-12T03:12:35;94799.41;;;8.53;100.00
6680;BME280;3376;42.664;23.346;2023-05-12T03:15:02;94790.97;;;8.35;100.00
6680;BME280;3376;42.664;23.346;2023-05-12T03:17:30;94799.56;;;8.51;100.00
6680;BME280;3376;42.664;23.346;2023-05-12T03:19:56;94791.94;;;8.42;100.00
6680;BME280;3376;42.664;23.346;2023-05-12T03:22:23;94794.88;;;8.47;100.00
6680;BME280;3376;42.664;23.346;2023-05-12T03:24:50;94805.56;;;8.52;100.00
6680;BME280;3376;42.664;23.346;2023-05-12T03:27:18;94810.31;;;8.39;100.00
6680;BME280;3376;42.664;23.346;2023-05-12T03:29:45;94810.31;;;8.39;100.00
6680;BME280;3376;42.664;23.346;2023-05-12T03:32:12;94781.34;;;8.19;100.00
6680;BME280;3376;42.664;23.346;2023-05-12T03:34:39;94814.53;;;8.40;100.00
6680;BME280;3376;42.664;23.346;2023-05-12T03:37:06;94815.16;;;8.42;100.00
6680;BME280;3376;42.664;23.346;2023-05-12T03:39:33;94797.72;;;8.27;100.00
6680;BME280;3376;42.664;23.346;2023-05-12T03:41:59;94795.03;;;8.19;100.00
6680;BME280;3376;42.664;23.346;2023-05-12T03:44:28;94814.97;;;8.35;100.00
6680;BME280;3376;42.664;23.346;2023-05-12T03:46:55;94819.22;;;8.44;100.00
6680;BME280;3376;42.664;23.346;2023-05-12T03:49:22;94817.75;;;8.42;100.00
6680;BME280;3376;42.664;23.346;2023-05-12T03:51:48;94806.59;;;8.33;100.00
6680;BME280;3376;42.664;23.346;2023-05-12T03:54:15;94819.84;;;8.38;100.00
6680;BME280;3376;42.664;23.346;2023-05-12T03:56:42;94807.25;;;8.35;100.00
6680;BME280;3376;42.664;23.346;2023-05-12T03:59:08;94818.38;;;8.36;100.00
6680;BME280;3376;42.664;23.346;2023-05-12T04:01:37;94817.41;;;8.37;100.00
6680;BME280;3376;42.664;23.346;2023-05-12T04:04:05;94827.44;;;8.40;100.00
6680;BME280;3376;42.664;23.346;2023-05-12T04:06:31;94826.47;;;8.41;100.00
6680;BME280;3376;42.664;23.346;2023-05-12T04:08:58;94820.31;;;8.42;100.00
6680;BME280;3376;42.664;23.346;2023-05-12T04:11:25;94827.81;;;8.53;100.00
6680;BME280;3376;42.664;23.346;2023-05-12T04:13:52;94818.75;;;8.49;100.00
6680;BME280;3376;42.664;23.346;2023-05-12T04:16:19;94840.56;;;8.54;100.00
6680;BME280;3376;42.664;23.346;2023-05-12T04:18:48;94849.44;;;8.52;100.00
6680;BME280;3376;42.664;23.346;2023-05-12T04:21:14;94838.47;;;8.50;100.00
6680;BME280;3376;42.664;23.346;2023-05-12T04:23:41;94825.06;;;8.46;100.00
6680;BME280;3376;42.664;23.346;2023-05-12T04:26:08;94836.88;;;8.57;100.00
6680;BME280;3376;42.664;23.346;2023-05-12T04:28:35;94839.47;;;8.57;100.00
6680;BME280;3376;42.664;23.346;2023-05-12T04:31:02;94819.59;;;8.57;100.00
6680;BME280;3376;42.664;23.346;2023-05-12T04:33:29;94831.56;;;8.58;100.00
6680;BME280;3376;42.664;23.346;2023-05-12T04:35:57;94828.81;;;8.60;100.00
6680;BME280;3376;42.664;23.346;2023-05-12T04:38:24;94844.16;;;8.61;100.00
6680;BME280;3376;42.664;23.346;2023-05-12T04:40:56;94831.72;;;8.65;100.00
6680;BME280;3376;42.664;23.346;2023-05-12T04:43:23;94795.84;;;8.46;100.00
6680;BME280;3376;42.664;23.346;2023-05-12T04:45:49;94795.84;;;8.46;100.00
6680;BME280;3376;42.664;23.346;2023-05-12T04:48:18;94839.97;;;8.68;100.00
6680;BME280;3376;42.664;23.346;2023-05-12T04:50:45;94835.31;;;8.72;100.00
6680;BME280;3376;42.664;23.346;2023-05-12T04:53:13;94834.16;;;8.74;100.00
6680;BME280;3376;42.664;23.346;2023-05-12T04:55:40;94821.41;;;8.73;100.00
6680;BME280;3376;42.664;23.346;2023-05-12T04:58:10;94832.91;;;8.78;100.00
6680;BME280;3376;42.664;23.346;2023-05-12T05:00:37;94762.56;;;8.35;100.00
6680;BME280;3376;42.664;23.346;2023-05-12T05:03:04;94846.03;;;8.93;100.00
6680;BME280;3376;42.664;23.346;2023-05-12T05:05:31;94849.56;;;8.92;100.00
6680;BME280;3376;42.664;23.346;2023-05-12T05:07:58;94842.47;;;8.94;100.00
6680;BME280;3376;42.664;23.346;2023-05-12T05:10:27;94845.72;;;8.96;100.00
6680;BME280;3376;42.664;23.346;2023-05-12T05:12:54;94837.13;;;8.87;100.00
6680;BME280;3376;42.664;23.346;2023-05-12T05:15:20;94844.41;;;8.92;100.00
6680;BME280;3376;42.664;23.346;2023-05-12T05:17:48;94824.38;;;8.86;100.00
6680;BME280;3376;42.664;23.346;2023-05-12T05:20:14;94831.97;;;8.95;100.00
6680;BME280;3376;42.664;23.346;2023-05-12T05:22:41;94841.53;;;9.11;100.00
6680;BME280;3376;42.664;23.346;2023-05-12T05:25:08;94844.13;;;9.11;100.00
6680;BME280;3376;42.664;23.346;2023-05-12T05:27:37;94836.69;;;9.08;100.00
6680;BME280;3376;42.664;23.346;2023-05-12T05:30:05;94850.28;;;9.18;100.00
6680;BME280;3376;42.664;23.346;2023-05-12T05:32:33;94855.13;;;9.21;100.00
6680;BME280;3376;42.664;23.346;2023-05-12T05:35:01;94836.06;;;9.14;100.00
6680;BME280;3376;42.664;23.346;2023-05-12T05:37:27;94845.13;;;9.18;100.00
6680;BME280;3376;42.664;23.346;2023-05-12T05:39:54;94859.97;;;9.24;100.00
6680;BME280;3376;42.664;23.346;2023-05-12T05:42:21;94804.72;;;9.01;100.00
6680;BME280;3376;42.664;23.346;2023-05-12T05:44:49;94855.00;;;9.30;100.00
6680;BME280;3376;42.664;23.346;2023-05-12T05:47:16;94853.69;;;9.26;100.00
6680;BME280;3376;42.664;23.346;2023-05-12T05:49:43;94839.13;;;9.17;100.00
6680;BME280;3376;42.664;23.346;2023-05-12T05:52:10;94860.66;;;9.34;100.00
6680;BME280;3376;42.664;23.346;2023-05-12T05:54:36;94852.41;;;9.30;100.00
6680;BME280;3376;42.664;23.346;2023-05-12T05:57:03;94846.56;;;9.20;100.00
6680;BME280;3376;42.664;23.346;2023-05-12T05:59:30;94825.41;;;9.17;100.00
6680;BME280;3376;42.664;23.346;2023-05-12T06:01:58;94857.41;;;9.40;100.00
6680;BME280;3376;42.664;23.346;2023-05-12T06:04:25;94861.16;;;9.53;100.00
6680;BME280;3376;42.664;23.346;2023-05-12T06:06:52;94859.88;;;9.58;100.00
6680;BME280;3376;42.664;23.346;2023-05-12T06:09:19;94857.94;;;9.68;100.00
6680;BME280;3376;42.664;23.346;2023-05-12T06:11:46;94855.84;;;9.71;100.00
6680;BME280;3376;42.664;23.346;2023-05-12T06:14:12;94862.44;;;9.74;100.00
6680;BME280;3376;42.664;23.346;2023-05-12T06:16:39;94857.94;;;9.68;100.00
6680;BME280;3376;42.664;23.346;2023-05-12T06:19:07;94865.84;;;9.82;100.00
6680;BME280;3376;42.664;23.346;2023-05-12T06:21:34;94872.66;;;9.83;100.00
6680;BME280;3376;42.664;23.346;2023-05-12T06:24:01;94869.22;;;9.91;100.00
6680;BME280;3376;42.664;23.346;2023-05-12T06:26:28;94871.34;;;9.95;100.00
6680;BME280;3376;42.664;23.346;2023-05-12T06:28:55;94876.53;;;9.95;100.00
6680;BME280;3376;42.664;23.346;2023-05-12T06:31:22;94872.63;;;9.99;100.00
6680;BME280;3376;42.664;23.346;2023-05-12T06:33:49;94884.75;;;10.07;100.00
6680;BME280;3376;42.664;23.346;2023-05-12T06:36:17;94873.91;;;10.03;100.00
6680;BME280;3376;42.664;23.346;2023-05-12T06:38:43;94883.66;;;10.17;100.00
6680;BME280;3376;42.664;23.346;2023-05-12T06:41:10;94874.91;;;10.10;100.00
6680;BME280;3376;42.664;23.346;2023-05-12T06:43:37;94875.22;;;10.07;100.00
6680;BME280;3376;42.664;23.346;2023-05-12T06:46:04;94884.28;;;10.19;100.00
6680;BME280;3376;42.664;23.346;2023-05-12T06:48:31;94891.06;;;10.20;100.00
6680;BME280;3376;42.664;23.346;2023-05-12T06:50:58;94888.16;;;10.15;100.00
6680;BME280;3376;42.664;23.346;2023-05-12T06:53:26;94891.41;;;10.17;100.00
6680;BME280;3376;42.664;23.346;2023-05-12T06:55:52;94744.16;;;9.35;100.00
6680;BME280;3376;42.664;23.346;2023-05-12T06:58:19;94869.53;;;10.20;100.00
6680;BME280;3376;42.664;23.346;2023-05-12T07:00:46;94894.31;;;10.38;100.00
6680;BME280;3376;42.664;23.346;2023-05-12T07:03:13;94885.88;;;10.36;100.00
6680;BME280;3376;42.664;23.346;2023-05-12T07:05:40;94888.63;;;10.43;100.00
6680;BME280;3376;42.664;23.346;2023-05-12T07:08:07;94883.78;;;10.40;100.00
6680;BME280;3376;42.664;23.346;2023-05-12T07:10:35;94887.50;;;10.29;100.00
6680;BME280;3376;42.664;23.346;2023-05-12T07:13:02;94778.06;;;9.73;100.00
6680;BME280;3376;42.664;23.346;2023-05-12T07:15:29;94889.06;;;10.54;100.00
6680;BME280;3376;42.664;23.346;2023-05-12T07:17:56;94877.16;;;10.29;100.00
6680;BME280;3376;42.664;23.346;2023-05-12T07:20:23;94869.06;;;10.24;100.00
6680;BME280;3376;42.664;23.346;2023-05-12T07:22:50;94902.06;;;10.30;100.00
6680;BME280;3376;42.664;23.346;2023-05-12T07:25:19;94888.81;;;10.17;100.00
6680;BME280;3376;42.664;23.346;2023-05-12T07:27:47;94905.63;;;10.37;100.00
6680;BME280;3376;42.664;23.346;2023-05-12T07:30:14;94903.03;;;10.37;100.00
6680;BME280;3376;42.664;23.346;2023-05-12T07:32:41;94896.25;;;10.28;100.00
6680;BME280;3376;42.664;23.346;2023-05-12T07:35:08;94888.16;;;10.31;100.00
6680;BME280;3376;42.664;23.346;2023-05-12T07:37:36;94904.34;;;10.33;100.00
6680;BME280;3376;42.664;23.346;2023-05-12T07:40:03;94896.72;;;10.40;100.00
6680;BME280;3376;42.664;23.346;2023-05-12T07:42:30;94833.50;;;9.86;100.00
6680;BME280;3376;42.664;23.346;2023-05-12T07:44:58;94900.75;;;10.42;100.00
6680;BME280;3376;42.664;23.346;2023-05-12T07:47:25;94891.53;;;10.40;100.00
6680;BME280;3376;42.664;23.346;2023-05-12T07:49:53;94892.13;;;10.58;100.00
6680;BME280;3376;42.664;23.346;2023-05-12T07:52:19;94903.72;;;10.78;100.00
6680;BME280;3376;42.664;23.346;2023-05-12T07:54:46;94896.84;;;11.01;100.00
6680;BME280;3376;42.664;23.346;2023-05-12T07:57:13;94897.38;;;11.27;100.00
6680;BME280;3376;42.664;23.346;2023-05-12T07:59:40;94904.19;;;11.51;100.00
6680;BME280;3376;42.664;23.346;2023-05-12T08:02:08;94885.50;;;11.55;100.00
6680;BME280;3376;42.664;23.346;2023-05-12T08:04:35;94901.19;;;11.93;100.00
6680;BME280;3376;42.664;23.346;2023-05-12T08:07:02;94882.03;;;11.94;100.00
6680;BME280;3376;42.664;23.346;2023-05-12T08:09:29;94902.38;;;12.05;100.00
6680;BME280;3376;42.664;23.346;2023-05-12T08:11:55;94885.47;;;12.09;100.00
6680;BME280;3376;42.664;23.346;2023-05-12T08:14:22;94877.44;;;12.18;100.00
6680;BME280;3376;42.664;23.346;2023-05-12T08:16:50;94888.00;;;12.31;100.00
6680;BME280;3376;42.664;23.346;2023-05-12T08:19:18;94904.06;;;12.35;99.89
6680;BME280;3376;42.664;23.346;2023-05-12T08:21:45;94904.50;;;12.38;99.24
6680;BME280;3376;42.664;23.346;2023-05-12T08:24:11;94894.56;;;12.42;98.41
6680;BME280;3376;42.664;23.346;2023-05-12T08:26:38;94908.47;;;12.63;97.34
6680;BME280;3376;42.664;23.346;2023-05-12T08:29:05;94908.94;;;12.67;97.73
6680;BME280;3376;42.664;23.346;2023-05-12T08:31:32;94901.69;;;12.62;97.08
6680;BME280;3376;42.664;23.346;2023-05-12T08:33:59;94893.16;;;12.54;97.06
6680;BME280;3376;42.664;23.346;2023-05-12T08:36:27;94905.09;;;12.77;96.68
6680;BME280;3376;42.664;23.346;2023-05-12T08:38:55;94910.28;;;12.77;95.91
6680;BME280;3376;42.664;23.346;2023-05-12T08:41:27;94884.13;;;12.64;95.76
6680;BME280;3376;42.664;23.346;2023-05-12T08:43:58;94899.88;;;12.77;96.38
6680;BME280;3376;42.664;23.346;2023-05-12T08:46:25;94898.44;;;12.89;95.32
6680;BME280;3376;42.664;23.346;2023-05-12T08:48:52;94904.34;;;12.98;94.19
6680;BME280;3376;42.664;23.346;2023-05-12T08:51:22;94901.50;;;12.93;93.50
6680;BME280;3376;42.664;23.346;2023-05-12T08:53:52;94904.13;;;13.08;93.53
6680;BME280;3376;42.664;23.346;2023-05-12T08:56:21;94909.22;;;13.16;92.98
6680;BME280;3376;42.664;23.346;2023-05-12T08:58:48;94908.75;;;13.27;90.86
6680;BME280;3376;42.664;23.346;2023-05-12T09:01:16;94882.75;;;13.12;91.98
6680;BME280;3376;42.664;23.346;2023-05-12T09:03:43;94892.72;;;13.09;92.28
6680;BME280;3376;42.664;23.346;2023-05-12T09:06:10;94910.38;;;13.28;91.84
6680;BME280;3376;42.664;23.346;2023-05-12T09:08:37;94904.09;;;13.22;91.98
6680;BME280;3376;42.664;23.346;2023-05-12T09:11:10;94893.50;;;13.24;91.86
6680;BME280;3376;42.664;23.346;2023-05-12T09:13:41;94892.41;;;13.33;91.11
6680;BME280;3376;42.664;23.346;2023-05-12T09:16:11;94896.63;;;13.34;90.94
6680;BME280;3376;42.664;23.346;2023-05-12T09:18:45;94769.88;;;12.42;89.77
6680;BME280;3376;42.664;23.346;2023-05-12T09:21:14;94892.63;;;12.87;91.68
6680;BME280;3376;42.664;23.346;2023-05-12T09:23:51;94889.56;;;12.84;92.16
6680;BME280;3376;42.664;23.346;2023-05-12T09:26:19;94894.44;;;13.02;92.25
6680;BME280;3376;42.664;23.346;2023-05-12T09:28:47;94906.44;;;12.73;93.13
6680;BME280;3376;42.664;23.346;2023-05-12T09:31:15;94886.88;;;12.34;95.36
6680;BME280;3376;42.664;23.346;2023-05-12T09:33:42;94884.91;;;12.36;96.62
6680;BME280;3376;42.664;23.346;2023-05-12T09:36:09;94875.97;;;12.16;95.61
6680;BME280;3376;42.664;23.346;2023-05-12T09:38:35;94886.31;;;12.24;96.04
6680;BME280;3376;42.664;23.346;2023-05-12T09:41:02;94853.44;;;12.16;96.35
6680;BME280;3376;42.664;23.346;2023-05-12T09:43:30;94878.97;;;12.56;95.53
6680;BME280;3376;42.664;23.346;2023-05-12T09:46:03;94885.44;;;12.89;92.56
6680;BME280;3376;42.664;23.346;2023-05-12T09:48:30;94842.88;;;12.90;90.34
6680;BME280;3376;42.664;23.346;2023-05-12T09:50:57;94866.41;;;13.18;89.82
6680;BME280;3376;42.664;23.346;2023-05-12T09:53:24;94888.59;;;13.50;88.89
6680;BME280;3376;42.664;23.346;2023-05-12T09:55:51;94835.22;;;12.89;87.12
6680;BME280;3376;42.664;23.346;2023-05-12T09:58:19;94866.34;;;13.12;87.22
6680;BME280;3376;42.664;23.346;2023-05-12T10:00:48;94874.56;;;13.30;85.81
6680;BME280;3376;42.664;23.346;2023-05-12T10:03:16;94887.66;;;13.36;85.64
6680;BME280;3376;42.664;23.346;2023-05-12T10:05:49;94883.72;;;13.26;83.96
6680;BME280;3376;42.664;23.346;2023-05-12T10:08:19;94875.41;;;13.16;84.36
6680;BME280;3376;42.664;23.346;2023-05-12T10:10:48;94851.63;;;12.89;85.71
6680;BME280;3376;42.664;23.346;2023-05-12T10:13:17;94858.38;;;12.98;86.22
6680;BME280;3376;42.664;23.346;2023-05-12T10:15:46;94879.16;;;13.28;85.96
6680;BME280;3376;42.664;23.346;2023-05-12T10:18:14;94857.00;;;13.32;84.55
6680;BME280;3376;42.664;23.346;2023-05-12T10:20:42;94874.34;;;13.46;83.97
6680;BME280;3376;42.664;23.346;2023-05-12T10:23:11;94849.59;;;13.14;83.87
6680;BME280;3376;42.664;23.346;2023-05-12T10:25:39;94852.28;;;13.42;84.60
6680;BME280;3376;42.664;23.346;2023-05-12T10:28:08;94881.78;;;13.70;84.11
6680;BME280;3376;42.664;23.346;2023-05-12T10:30:36;94869.50;;;13.43;84.79
6680;BME280;3376;42.664;23.346;2023-05-12T10:33:05;94862.94;;;13.68;86.27
6680;BME280;3376;42.664;23.346;2023-05-12T10:35:34;94859.22;;;13.77;82.70
6680;BME280;3376;42.664;23.346;2023-05-12T10:38:04;94867.44;;;13.74;84.41
6680;BME280;3376;42.664;23.346;2023-05-12T10:40:31;94851.03;;;13.80;84.29
6680;BME280;3376;42.664;23.346;2023-05-12T10:42:58;94839.38;;;13.97;82.63
6680;BME280;3376;42.664;23.346;2023-05-12T10:45:26;94841.09;;;14.11;83.20
6680;BME280;3376;42.664;23.346;2023-05-12T10:48:05;94833.50;;;14.37;83.26
6680;BME280;3376;42.664;23.346;2023-05-12T10:50:32;94846.97;;;14.81;80.47
6680;BME280;3376;42.664;23.346;2023-05-12T10:52:59;94870.91;;;14.57;79.78
6680;BME280;3376;42.664;23.346;2023-05-12T10:55:30;94858.13;;;14.35;80.77
6680;BME280;3376;42.664;23.346;2023-05-12T10:58:03;94853.81;;;14.21;82.91
6680;BME280;3376;42.664;23.346;2023-05-12T11:00:31;94853.06;;;14.27;81.93
6680;BME280;3376;42.664;23.346;2023-05-12T11:03:12;94837.31;;;14.13;81.83
6680;BME280;3376;42.664;23.346;2023-05-12T11:05:39;94857.81;;;14.23;82.22
6680;BME280;3376;42.664;23.346;2023-05-12T11:08:06;94856.22;;;14.43;81.70
6680;BME280;3376;42.664;23.346;2023-05-12T11:10:33;94743.13;;;13.61;82.48
6680;BME280;3376;42.664;23.346;2023-05-12T11:13:01;94863.91;;;14.30;82.42
6680;BME280;3376;42.664;23.346;2023-05-12T11:15:28;94844.16;;;14.21;82.62
6680;BME280;3376;42.664;23.346;2023-05-12T11:17:55;94861.75;;;14.12;83.68
6680;BME280;3376;42.664;23.346;2023-05-12T11:20:24;94863.13;;;14.08;81.39
6680;BME280;3376;42.664;23.346;2023-05-12T11:22:51;94865.78;;;14.15;80.47
6680;BME280;3376;42.664;23.346;2023-05-12T11:25:19;94866.53;;;14.30;80.86
6680;BME280;3376;42.664;23.346;2023-05-12T11:27:46;94869.75;;;14.60;79.57
6680;BME280;3376;42.664;23.346;2023-05-12T11:30:13;94869.31;;;14.56;77.83
6680;BME280;3376;42.664;23.346;2023-05-12T11:32:40;94873.94;;;14.61;78.36
6680;BME280;3376;42.664;23.346;2023-05-12T11:35:11;94866.75;;;14.63;78.83
6680;BME280;3376;42.664;23.346;2023-05-12T11:37:41;94882.94;;;14.52;78.58
6680;BME280;3376;42.664;23.346;2023-05-12T11:40:15;94878.00;;;14.36;78.66
6680;BME280;3376;42.664;23.346;2023-05-12T11:42:43;94879.63;;;14.15;79.95
6680;BME280;3376;42.664;23.346;2023-05-12T11:45:23;94876.84;;;13.96;79.74
6680;BME280;3376;42.664;23.346;2023-05-12T11:47:50;94862.81;;;13.97;78.99
6680;BME280;3376;42.664;23.346;2023-05-12T11:50:22;94870.50;;;14.05;78.04
6680;BME280;3376;42.664;23.346;2023-05-12T11:52:51;94865.16;;;14.13;78.70
6680;BME280;3376;42.664;23.346;2023-05-12T11:55:19;94865.19;;;14.19;79.17
6680;BME280;3376;42.664;23.346;2023-05-12T11:57:57;94860.81;;;14.41;79.27
6680;BME280;3376;42.664;23.346;2023-05-12T12:00:30;94869.31;;;14.29;78.65
6680;BME280;3376;42.664;23.346;2023-05-12T12:03:08;94842.06;;;14.03;79.82
6680;BME280;3376;42.664;23.346;2023-05-12T12:05:35;94762.94;;;13.35;81.73
6680;BME280;3376;42.664;23.346;2023-05-12T12:08:11;94773.56;;;13.19;81.91
6680;BME280;3376;42.664;23.346;2023-05-12T12:10:42;94870.84;;;13.74;82.43
6680;BME280;3376;42.664;23.346;2023-05-12T12:13:09;94859.53;;;13.88;81.14
6680;BME280;3376;42.664;23.346;2023-05-12T12:15:36;94876.81;;;14.17;79.73
6680;BME280;3376;42.664;23.346;2023-05-12T12:18:03;94851.56;;;13.90;78.64
6680;BME280;3376;42.664;23.346;2023-05-12T12:20:30;94877.22;;;14.14;77.34
6680;BME280;3376;42.664;23.346;2023-05-12T12:22:57;94883.09;;;14.01;79.30
6680;BME280;3376;42.664;23.346;2023-05-12T12:25:25;94870.91;;;14.02;79.56
6680;BME280;3376;42.664;23.346;2023-05-12T12:27:52;94877.72;;;14.03;80.52
6680;BME280;3376;42.664;23.346;2023-05-12T12:30:19;94875.84;;;13.76;79.15
6680;BME280;3376;42.664;23.346;2023-05-12T12:32:46;94868.84;;;13.76;79.81
6680;BME280;3376;42.664;23.346;2023-05-12T12:35:13;94879.44;;;13.75;80.90
6680;BME280;3376;42.664;23.346;2023-05-12T12:37:40;94874.59;;;13.51;80.71
6680;BME280;3376;42.664;23.346;2023-05-12T12:40:08;94868.28;;;13.60;81.50
6680;BME280;3376;42.664;23.346;2023-05-12T12:42:37;94878.56;;;13.68;80.65
6680;BME280;3376;42.664;23.346;2023-05-12T12:45:06;94847.69;;;13.65;80.57
6680;BME280;3376;42.664;23.346;2023-05-12T12:47:34;94882.53;;;13.85;79.75
6680;BME280;3376;42.664;23.346;2023-05-12T12:50:01;94856.75;;;13.90;79.41
6680;BME280;3376;42.664;23.346;2023-05-12T12:52:28;94866.81;;;13.93;77.64
6680;BME280;3376;42.664;23.346;2023-05-12T12:54:55;94883.50;;;13.98;77.11
6680;BME280;3376;42.664;23.346;2023-05-12T12:57:22;94873.34;;;14.10;78.01
6680;BME280;3376;42.664;23.346;2023-05-12T12:59:51;94874.66;;;14.21;77.25
6680;BME280;3376;42.664;23.346;2023-05-12T13:02:18;94848.91;;;14.11;75.27
6680;BME280;3376;42.664;23.346;2023-05-12T13:04:45;94862.94;;;14.10;74.81
6680;BME280;3376;42.664;23.346;2023-05-12T13:07:11;94868.09;;;14.03;74.27
6680;BME280;3376;42.664;23.346;2023-05-12T13:09:38;94835.06;;;13.83;74.17
6680;BME280;3376;42.664;23.346;2023-05-12T13:12:07;94859.19;;;13.91;75.52